Time;durP1;ratioP1;P1;durP2;ratioP2;P2;SDS_P1;SDS_P2;PMS_P1;PMS_P2;Temp;Humidity;BMP_temperature;BMP_pressure;BME280_temperature;BME280_humidity;BME280_pressure;Samples;Min_cycle;Max_cycle;Signal;HPM_P1;HPM_P2
2023/08/19 00:00:51;;;;;;;;;;;20.00;99.90;;;;;;5096758;29;20047;-70
2023/08/19 00:03:23;;;;;;;7.87;7.00;;;20.00;99.90;;;;;;5101564;28;19929;-70
2023/08/19 00:06:05;;;;;;;10.20;7.63;;;20.00;99.90;;;;;;5099920;28;20041;-72
2023/08/19 00:08:37;;;;;;;9.43;7.40;;;19.90;99.90;;;;;;5102525;28;20055;-71
2023/08/19 00:11:13;;;;;;;10.75;7.38;;;19.90;99.90;;;;;;5100247;28;20043;-71
2023/08/19 00:13:45;;;;;;;9.23;7.25;;;19.90;99.90;;;;;;5140331;28;20059;-72
2023/08/19 00:16:19;;;;;;;8.80;6.88;;;19.80;99.90;;;;;;5181217;28;20487;-71
2023/08/19 00:18:54;;;;;;;8.70;6.97;;;19.80;99.90;;;;;;5166630;28;20057;-72
2023/08/19 00:21:26;;;;;;;11.02;6.93;;;19.70;99.90;;;;;;5132242;28;20043;-71
2023/08/19 00:24:07;;;;;;;11.05;7.72;;;19.70;99.90;;;;;;5096189;28;20039;-71
2023/08/19 00:26:41;;;;;;;9.10;6.72;;;19.70;99.90;;;;;;5095716;29;20054;-71
2023/08/19 00:29:13;;;;;;;8.63;7.18;;;19.60;99.90;;;;;;5081138;28;20034;-70
2023/08/19 00:31:52;;;;;;;7.93;6.75;;;19.60;99.90;;;;;;5094535;28;20383;-71
2023/08/19 00:34:24;;;;;;;8.75;6.97;;;19.60;99.90;;;;;;5098701;29;20507;-72
2023/08/19 00:36:59;;;;;;;9.02;7.18;;;19.60;99.90;;;;;;5151278;28;20179;-72
2023/08/19 00:39:31;;;;;;;9.93;7.28;;;19.60;99.90;;;;;;5163292;28;20073;-71
2023/08/19 00:42:08;;;;;;;8.70;7.35;;;19.60;99.90;;;;;;5093104;28;20054;-72
2023/08/19 00:44:40;;;;;;;8.40;6.97;;;19.50;99.90;;;;;;5163599;28;20047;-71
2023/08/19 00:47:17;;;;;;;9.63;7.10;;;19.60;99.90;;;;;;5175933;28;20034;-70
2023/08/19 00:49:49;;;;;;;8.57;7.22;;;19.40;99.90;;;;;;5186849;28;20156;-70
2023/08/19 00:52:21;;;;;;;12.98;7.55;;;19.40;99.90;;;;;;5186359;28;20035;-71
2023/08/19 00:54:54;;;;;;;9.38;7.53;;;19.40;99.90;;;;;;5115089;29;20058;-71
2023/08/19 00:57:31;;;;;;;9.48;7.90;;;19.40;99.90;;;;;;5082810;29;20049;-71
2023/08/19 01:00:12;;;;;;;9.52;7.50;;;19.30;99.90;;;;;;5066800;29;20049;-71
2023/08/19 01:02:44;;;;;;;9.07;7.70;;;19.30;99.90;;;;;;5188759;23;20058;-61
2023/08/19 01:05:22;;;;;;;9.50;7.57;;;19.30;99.90;;;;;;5173669;28;20040;-64
2023/08/19 01:08:01;;;;;;;7.82;6.88;;;19.30;99.90;;;;;;5212694;28;20043;-65
2023/08/19 01:10:38;;;;;;;10.30;7.55;;;19.30;99.90;;;;;;5105580;28;20073;-63
2023/08/19 01:13:19;;;;;;;9.57;7.88;;;19.30;99.90;;;;;;5182189;28;20412;-65
2023/08/19 01:16:24;;;;;;;11.23;8.00;;;19.10;99.90;;;;;;5177393;28;20033;-64
2023/08/19 01:18:59;;;;;;;9.30;7.90;;;19.10;99.90;;;;;;5183838;28;20047;-67
2023/08/19 01:21:32;;;;;;;9.02;7.95;;;19.10;99.90;;;;;;5090854;28;20297;-64
2023/08/19 01:24:09;;;;;;;11.55;8.60;;;19.00;99.90;;;;;;5158025;28;20412;-64
2023/08/19 01:26:43;;;;;;;8.35;7.30;;;19.10;99.90;;;;;;5187625;28;20526;-62
2023/08/19 01:29:15;;;;;;;9.85;8.23;;;19.10;99.90;;;;;;5156715;28;20057;-62
2023/08/19 01:31:46;;;;;;;8.15;6.95;;;19.00;99.90;;;;;;5184121;28;20057;-67
2023/08/19 01:34:18;;;;;;;8.68;7.63;;;19.00;99.90;;;;;;5168553;28;20519;-63
2023/08/19 01:37:04;;;;;;;12.00;8.38;;;19.00;99.90;;;;;;5194288;28;20104;-63
2023/08/19 01:39:39;;;;;;;8.77;7.88;;;18.90;99.90;;;;;;5193108;28;20051;-62
2023/08/19 01:42:16;;;;;;;9.07;7.82;;;18.90;99.90;;;;;;5202450;28;20034;-64
2023/08/19 01:44:49;;;;;;;9.35;7.57;;;18.90;99.90;;;;;;5103566;28;20053;-64
2023/08/19 01:47:22;;;;;;;9.27;6.97;;;18.90;99.90;;;;;;5163469;28;20395;-64
2023/08/19 01:50:01;;;;;;;9.50;7.43;;;18.80;99.90;;;;;;5185797;28;20041;-63
2023/08/19 01:52:34;;;;;;;10.48;7.68;;;18.80;99.90;;;;;;5174348;28;20052;-62
2023/08/19 01:55:12;;;;;;;10.35;7.43;;;18.80;99.90;;;;;;5201313;28;20043;-63
2023/08/19 01:57:46;;;;;;;9.50;8.20;;;18.80;99.90;;;;;;5196259;28;20524;-64
2023/08/19 02:00:22;;;;;;;9.60;7.70;;;18.80;99.90;;;;;;5099451;28;20597;-66
2023/08/19 02:03:00;;;;;;;8.55;7.07;;;18.80;99.90;;;;;;5185148;28;20037;-65
2023/08/19 02:05:36;;;;;;;11.65;6.88;;;18.80;99.90;;;;;;5187742;28;20410;-65
2023/08/19 02:08:07;;;;;;;9.57;7.50;;;18.80;99.90;;;;;;5204129;28;20526;-63
2023/08/19 02:10:43;;;;;;;10.27;7.57;;;18.80;99.90;;;;;;5203296;28;20250;-62
2023/08/19 02:13:20;;;;;;;8.65;7.30;;;18.80;99.90;;;;;;5138528;28;20037;-65
2023/08/19 02:15:51;;;;;;;9.32;7.55;;;18.80;99.90;;;;;;5138693;28;20031;-62
2023/08/19 02:18:24;;;;;;;9.48;7.28;;;18.80;99.90;;;;;;5086636;28;20047;-65
2023/08/19 02:21:05;;;;;;;8.40;7.47;;;18.70;99.90;;;;;;5161031;28;20057;-62
2023/08/19 02:23:38;;;;;;;9.85;7.28;;;18.70;99.90;;;;;;5190324;28;20073;-62
2023/08/19 02:26:12;;;;;;;8.75;7.22;;;18.70;99.90;;;;;;5184790;28;20117;-64
2023/08/19 02:28:46;;;;;;;8.35;7.00;;;18.60;99.90;;;;;;5149416;28;20040;-63
2023/08/19 02:31:23;;;;;;;10.88;8.18;;;18.60;99.90;;;;;;5128554;28;20039;-63
2023/08/19 02:33:57;;;;;;;9.85;7.70;;;18.50;99.90;;;;;;5164805;28;20037;-63
2023/08/19 02:36:32;;;;;;;9.32;7.43;;;18.60;99.90;;;;;;5146986;28;20039;-62
2023/08/19 02:39:09;;;;;;;8.50;7.28;;;18.60;99.90;;;;;;5202408;28;20038;-64
2023/08/19 02:42:01;;;;;;;10.23;7.78;;;18.50;99.90;;;;;;5178995;28;20032;-63
2023/08/19 02:44:33;;;;;;;9.15;7.38;;;18.50;99.90;;;;;;5164440;28;20323;-63
2023/08/19 02:47:07;;;;;;;9.70;7.57;;;18.50;99.90;;;;;;5159475;28;20069;-66
2023/08/19 02:49:47;;;;;;;10.88;7.50;;;18.40;99.90;;;;;;5135046;28;20244;-63
2023/08/19 02:52:22;;;;;;;10.30;7.80;;;18.40;99.90;;;;;;5170977;28;20045;-63
2023/08/19 02:55:00;;;;;;;10.30;8.05;;;18.40;99.90;;;;;;5201147;28;20697;-63
2023/08/19 02:57:34;;;;;;;9.50;7.25;;;18.40;99.90;;;;;;5146822;28;20041;-63
2023/08/19 03:00:07;;;;;;;11.85;7.68;;;18.40;99.90;;;;;;5199092;28;20050;-63
2023/08/19 03:02:39;;;;;;;11.77;8.70;;;18.40;99.90;;;;;;5168935;28;20497;-66
2023/08/19 03:05:11;;;;;;;12.07;7.60;;;18.40;99.90;;;;;;5184870;28;20073;-62
2023/08/19 03:07:44;;;;;;;10.07;7.93;;;18.40;99.90;;;;;;5184240;28;20629;-64
2023/08/19 03:10:18;;;;;;;13.02;8.05;;;18.40;99.90;;;;;;5187436;28;20052;-64
2023/08/19 03:12:54;;;;;;;;;;;18.40;99.90;;;;;;5168441;28;20057;-62
2023/08/19 03:15:29;;;;;;;9.43;7.13;;;18.40;99.90;;;;;;5149788;28;20110;-62
2023/08/19 03:18:00;;;;;;;8.05;7.22;;;18.40;99.90;;;;;;5174849;28;20045;-63
2023/08/19 03:20:33;;;;;;;9.50;7.50;;;18.40;99.90;;;;;;5167192;28;20032;-66
2023/08/19 03:23:04;;;;;;;7.70;6.57;;;18.40;99.90;;;;;;5143782;28;20035;-65
2023/08/19 03:25:36;;;;;;;10.80;7.72;;;18.40;99.90;;;;;;5196901;28;20039;-63
2023/08/19 03:28:11;;;;;;;8.50;7.32;;;18.40;99.90;;;;;;5206917;28;20080;-64
2023/08/19 03:30:45;;;;;;;10.60;8.52;;;18.40;99.90;;;;;;5187480;28;20033;-64
2023/08/19 03:33:20;;;;;;;9.48;8.07;;;18.40;99.90;;;;;;5138542;28;20045;-63
2023/08/19 03:35:51;;;;;;;10.55;8.07;;;18.40;99.90;;;;;;5196453;28;20044;-64
2023/08/19 03:38:23;;;;;;;9.80;7.60;;;18.30;99.90;;;;;;5167400;28;20049;-63
2023/08/19 03:40:55;;;;;;;11.05;8.60;;;18.30;99.90;;;;;;5140372;28;20050;-63
2023/08/19 03:43:32;;;;;;;11.18;8.15;;;18.20;99.90;;;;;;5189857;28;20074;-62
2023/08/19 03:46:09;;;;;;;11.35;8.73;;;18.20;99.90;;;;;;5139350;28;20042;-64
2023/08/19 03:48:46;;;;;;;11.13;7.63;;;18.20;99.90;;;;;;5187678;28;20044;-63
2023/08/19 03:51:17;;;;;;;10.57;7.88;;;18.20;99.90;;;;;;5152987;28;20328;-64
2023/08/19 03:53:52;;;;;;;9.02;7.93;;;18.20;99.90;;;;;;5199902;28;20077;-62
2023/08/19 03:56:29;;;;;;;11.07;7.30;;;18.20;99.90;;;;;;5199334;28;20041;-65
2023/08/19 03:59:01;;;;;;;10.15;7.97;;;18.20;99.90;;;;;;5203757;28;20044;-62
2023/08/19 04:01:39;;;;;;;11.63;7.85;;;18.20;99.90;;;;;;5194015;28;20044;-63
2023/08/19 04:04:15;;;;;;;10.20;8.13;;;18.30;99.90;;;;;;5204624;28;20523;-65
2023/08/19 04:06:57;;;;;;;9.52;7.88;;;18.30;99.90;;;;;;5197988;28;20330;-64
2023/08/19 04:09:29;;;;;;;9.40;7.57;;;18.30;99.90;;;;;;5102650;28;20059;-65
2023/08/19 04:12:03;;;;;;;8.90;7.30;;;18.30;99.90;;;;;;5105596;28;20050;-65
2023/08/19 04:14:34;;;;;;;;;;;18.40;99.90;;;;;;5105366;28;20220;-63
2023/08/19 04:17:09;;;;;;;10.90;8.23;;;18.30;99.90;;;;;;5161372;28;19917;-66
2023/08/19 04:19:41;;;;;;;11.85;8.05;;;18.30;99.90;;;;;;5103209;28;20431;-63
2023/08/19 04:22:18;;;;;;;11.73;8.65;;;18.30;99.90;;;;;;5179454;28;20051;-64
2023/08/19 04:24:51;;;;;;;9.18;8.02;;;18.40;99.90;;;;;;5199687;28;20043;-65
2023/08/19 04:27:26;;;;;;;9.88;7.35;;;18.40;99.90;;;;;;5186559;28;20045;-64
2023/08/19 04:29:58;;;;;;;9.10;7.97;;;18.50;99.90;;;;;;5171912;28;20041;-65
2023/08/19 04:32:31;;;;;;;9.88;7.68;;;18.60;99.90;;;;;;5167421;28;20041;-65
2023/08/19 04:35:04;;;;;;;8.60;7.80;;;18.70;99.90;;;;;;5104496;28;20374;-66
2023/08/19 04:37:35;;;;;;;9.40;7.70;;;18.70;99.90;;;;;;5207306;28;20053;-67
2023/08/19 04:40:09;;;;;;;9.60;7.28;;;18.80;99.90;;;;;;5134261;28;20038;-65
2023/08/19 04:42:44;;;;;;;7.77;6.63;;;18.90;99.90;;;;;;5195816;28;20055;-67
2023/08/19 04:45:17;;;;;;;8.73;7.32;;;19.10;99.90;;;;;;5167324;28;20041;-65
2023/08/19 04:47:52;;;;;;;9.20;7.50;;;19.20;99.90;;;;;;5158611;28;20051;-67
2023/08/19 04:50:27;;;;;;;9.68;7.13;;;19.30;99.90;;;;;;5103791;28;20506;-64
2023/08/19 04:53:01;;;;;;;;;;;19.40;99.90;;;;;;5197623;28;20047;-64
2023/08/19 04:55:36;;;;;;;8.93;6.63;;;19.80;99.90;;;;;;5190139;28;20408;-65
2023/08/19 04:58:08;;;;;;;8.82;6.82;;;20.00;99.90;;;;;;5173035;28;20371;-64
2023/08/19 05:00:42;;;;;;;9.25;7.15;;;20.30;99.90;;;;;;5194722;28;20056;-65
2023/08/19 05:03:14;;;;;;;7.82;6.45;;;20.60;99.90;;;;;;5162082;28;20051;-65
2023/08/19 05:05:48;;;;;;;8.43;6.78;;;20.90;99.90;;;;;;5134333;28;20023;-63
2023/08/19 05:08:26;;;;;;;7.10;6.18;;;21.10;99.90;;;;;;5174038;28;20030;-65
2023/08/19 05:10:58;;;;;;;7.57;6.55;;;21.30;24.00;;;;;;5185287;28;20055;-64
2023/08/19 05:13:30;;;;;;;6.40;5.72;;;21.50;1.00;;;;;;5170304;28;20049;-64
2023/08/19 05:16:02;;;;;;;6.50;5.80;;;21.70;1.00;;;;;;5207036;28;20029;-65
2023/08/19 05:18:37;;;;;;;7.97;6.30;;;21.80;1.00;;;;;;5186646;28;20043;-63
2023/08/19 05:21:08;;;;;;;6.50;5.88;;;21.90;1.00;;;;;;5186485;28;20070;-65
2023/08/19 05:23:45;;;;;;;6.97;6.05;;;21.90;1.00;;;;;;5182501;28;20035;-62
2023/08/19 05:26:19;;;;;;;8.32;5.95;;;22.00;1.00;;;;;;5211582;28;20217;-66
2023/08/19 05:28:51;;;;;;;9.90;6.90;;;22.30;1.00;;;;;;5205651;28;20033;-66
2023/08/19 05:31:27;;;;;;;7.40;5.75;;;22.60;1.00;;;;;;5183852;28;20162;-66
2023/08/19 05:34:10;;;;;;;6.78;5.55;;;22.90;1.00;;;;;;5221881;28;20037;-63
2023/08/19 05:36:44;;;;;;;6.60;5.43;;;23.10;1.00;;;;;;5198751;28;20037;-64
2023/08/19 05:39:15;;;;;;;8.50;5.57;;;23.40;1.00;;;;;;5202532;28;20046;-65
2023/08/19 05:41:48;;;;;;;9.52;6.25;;;23.60;1.00;;;;;;5206040;28;20041;-62
2023/08/19 05:44:20;;;;;;;6.70;5.72;;;23.90;99.90;;;;;;5192744;28;20155;-66
2023/08/19 05:46:54;;;;;;;6.78;5.70;;;24.20;99.90;;;;;;5209743;28;20261;-65
2023/08/19 05:49:29;;;;;;;8.48;6.25;;;24.40;99.90;;;;;;5169090;28;20068;-66
2023/08/19 05:52:04;;;;;;;7.00;5.88;;;24.50;99.90;;;;;;5202363;28;20035;-65
2023/08/19 05:54:38;;;;;;;6.55;5.40;;;24.70;1.00;;;;;;5179499;28;20262;-63
2023/08/19 05:57:13;;;;;;;6.47;5.72;;;24.70;1.00;;;;;;5206132;28;20034;-65
2023/08/19 05:59:50;;;;;;;8.27;5.57;;;24.90;1.00;;;;;;5113246;28;20039;-64
2023/08/19 06:02:27;;;;;;;6.63;5.68;;;25.10;1.00;;;;;;5127756;28;20031;-64
2023/08/19 06:05:03;;;;;;;6.65;5.43;;;25.00;1.00;;;;;;5145439;28;20409;-63
2023/08/19 06:07:37;;;;;;;6.28;5.00;;;25.20;1.00;;;;;;5218030;28;20219;-65
2023/08/19 06:10:12;;;;;;;6.40;5.72;;;25.50;1.00;;;;;;5200125;28;20184;-68
2023/08/19 06:12:51;;;;;;;7.07;5.88;;;25.80;1.00;;;;;;5097191;28;20433;-64
2023/08/19 06:15:29;;;;;;;8.85;6.78;;;25.70;1.00;;;;;;5140455;28;20045;-66
2023/08/19 06:18:01;;;;;;;8.80;6.57;;;25.70;1.00;;;;;;5142663;28;20046;-63
2023/08/19 06:20:37;;;;;;;7.70;6.30;;;25.50;1.00;;;;;;5090907;28;20064;-63
2023/08/19 06:23:11;;;;;;;7.65;6.82;;;25.60;1.00;;;;;;5090115;28;20046;-63
2023/08/19 06:25:45;;;;;;;8.57;5.93;;;25.80;99.90;;;;;;5106543;28;20043;-64
2023/08/19 06:28:21;;;;;;;6.35;5.65;;;25.90;99.90;;;;;;5178529;28;20519;-64
2023/08/19 06:30:58;;;;;;;7.43;6.20;;;26.20;99.90;;;;;;5182450;28;20031;-63
2023/08/19 06:33:32;;;;;;;8.13;6.05;;;26.30;99.90;;;;;;5153586;28;20040;-63
2023/08/19 06:36:06;;;;;;;;;;;26.50;99.90;;;;;;5173121;28;20537;-62
2023/08/19 06:38:44;;;;;;;7.43;6.20;;;26.50;99.90;;;;;;5146019;28;19923;-63
2023/08/19 06:41:18;;;;;;;8.48;7.22;;;26.80;1.00;;;;;;5177671;28;20039;-64
2023/08/19 06:43:51;;;;;;;10.13;6.60;;;26.70;99.90;;;;;;5169453;28;20371;-63
2023/08/19 06:46:23;;;;;;;8.88;6.88;;;26.60;99.90;;;;;;5164246;28;20021;-63
2023/08/19 06:48:56;;;;;;;7.63;6.63;;;26.80;99.90;;;;;;5130786;28;20042;-62
2023/08/19 06:51:30;;;;;;;9.27;7.00;;;26.90;99.90;;;;;;5125576;28;20192;-63
2023/08/19 06:54:05;;;;;;;12.45;8.00;;;27.10;99.90;;;;;;5103001;28;20049;-63
2023/08/19 06:57:10;;;;;;;9.57;7.03;;;27.40;99.90;;;;;;5137630;28;20041;-62
2023/08/19 06:59:47;;;;;;;8.95;7.07;;;27.30;99.90;;;;;;5182688;28;20073;-63
2023/08/19 07:02:23;;;;;;;10.55;6.55;;;27.60;99.90;;;;;;5166158;28;20049;-63
2023/08/19 07:04:59;;;;;;;8.55;7.03;;;27.80;99.90;;;;;;5183865;28;20042;-63
2023/08/19 07:07:33;;;;;;;10.35;7.47;;;28.20;99.90;;;;;;5189200;28;20024;-61
2023/08/19 07:10:08;;;;;;;8.30;7.13;;;28.50;99.90;;;;;;5188765;28;20043;-63
2023/08/19 07:12:42;;;;;;;8.65;7.45;;;28.60;42.50;;;;;;5178454;28;20040;-61
2023/08/19 07:15:18;;;;;;;8.73;7.20;;;28.80;1.00;;;;;;5186506;28;20045;-64
2023/08/19 07:17:58;;;;;;;10.20;6.85;;;28.90;1.00;;;;;;5204946;28;20113;-60
2023/08/19 07:20:30;;;;;;;7.10;6.38;;;29.20;1.00;;;;;;5202150;28;20053;-63
2023/08/19 07:23:03;;;;;;;7.80;6.20;;;29.40;1.00;;;;;;5210116;28;20037;-62
2023/08/19 07:25:40;;;;;;;10.13;7.25;;;29.60;1.00;;;;;;5220609;28;20045;-64
2023/08/19 07:28:23;;;;;;;7.90;6.55;;;29.70;1.00;;;;;;5187411;28;20057;-62
2023/08/19 07:30:55;;;;;;;6.80;5.63;;;29.60;1.00;;;;;;5195603;28;20392;-61
2023/08/19 07:33:31;;;;;;;7.80;6.32;;;29.70;1.00;;;;;;5208677;28;20316;-63
2023/08/19 07:36:05;;;;;;;6.88;6.05;;;30.00;1.00;;;;;;5128995;28;20271;-63
2023/08/19 07:38:40;;;;;;;10.65;6.63;;;30.10;1.00;;;;;;5175827;28;20039;-64
2023/08/19 07:41:14;;;;;;;;;;;30.30;1.00;;;;;;5125719;28;20245;-62
2023/08/19 07:43:49;;;;;;;6.55;5.78;;;30.30;1.00;;;;;;5097878;29;19918;-64
2023/08/19 07:46:25;;;;;;;6.35;5.43;;;30.20;1.00;;;;;;5114119;28;20028;-62
2023/08/19 07:48:57;;;;;;;6.78;5.60;;;30.30;14.50;;;;;;5137066;28;20539;-62
2023/08/19 07:51:29;;;;;;;5.78;5.00;;;30.40;99.90;;;;;;5168793;28;20045;-64
2023/08/19 07:54:01;;;;;;;9.73;5.05;;;30.40;1.00;;;;;;5189747;28;20049;-64
2023/08/19 07:56:35;;;;;;;5.55;4.55;;;30.40;1.00;;;;;;5172667;28;20026;-65
2023/08/19 07:59:07;;;;;;;5.97;5.38;;;30.30;1.00;;;;;;5197018;28;20039;-63
2023/08/19 08:01:44;;;;;;;5.63;5.10;;;30.60;1.00;;;;;;5119498;28;20027;-65
2023/08/19 08:04:18;;;;;;;6.35;5.32;;;30.90;57.20;;;;;;5195990;28;20151;-63
2023/08/19 08:06:50;;;;;;;;;;;30.80;1.00;;;;;;5189914;28;20339;-65
2023/08/19 08:09:21;;;;;;;6.22;5.47;;;30.80;1.00;;;;;;5163940;28;19914;-64
2023/08/19 08:11:55;;;;;;;7.18;5.40;;;30.60;1.00;;;;;;5204061;28;20047;-64
2023/08/19 08:14:29;;;;;;;;;;;30.70;1.00;;;;;;5190620;28;20041;-64
2023/08/19 08:17:01;;;;;;;7.95;5.47;;;31.00;1.00;;;;;;5207626;28;19921;-61
2023/08/19 08:19:33;;;;;;;6.55;5.70;;;30.90;77.70;;;;;;5137440;28;20038;-62
2023/08/19 08:22:07;;;;;;;9.20;5.40;;;31.20;99.90;;;;;;5202233;28;20220;-65
2023/08/19 08:24:42;;;;;;;7.90;5.88;;;31.40;99.90;;;;;;5194427;28;20033;-64
2023/08/19 08:27:17;;;;;;;7.03;5.75;;;31.30;99.90;;;;;;5148778;28;20057;-63
2023/08/19 08:30:05;;;;;;;5.60;5.00;;;31.60;99.90;;;;;;5182960;28;20049;-63
2023/08/19 08:32:38;;;;;;;6.80;5.50;;;31.60;1.00;;;;;;5178435;28;20045;-64
2023/08/19 08:35:11;;;;;;;5.85;4.93;;;31.50;99.90;;;;;;5160296;28;20072;-62
2023/08/19 08:37:51;;;;;;;6.05;5.10;;;31.40;1.00;;;;;;5074748;28;20210;-65
2023/08/19 08:40:28;;;;;;;9.80;5.35;;;31.40;99.90;;;;;;5193007;28;20063;-65
2023/08/19 08:43:03;;;;;;;6.20;4.80;;;31.90;99.90;;;;;;5192629;28;20128;-64
2023/08/19 08:45:43;;;;;;;6.47;5.38;;;31.90;1.00;;;;;;5141574;28;20519;-63
2023/08/19 08:48:18;;;;;;;8.52;5.65;;;32.00;1.00;;;;;;5144923;28;20049;-62
2023/08/19 08:50:53;;;;;;;5.28;4.78;;;32.10;1.00;;;;;;5162943;28;20029;-63
2023/08/19 08:53:28;;;;;;;6.85;5.30;;;31.90;1.00;;;;;;5181855;28;20035;-62
2023/08/19 08:56:01;;;;;;;5.53;4.95;;;32.10;1.00;;;;;;5178874;28;20052;-63
2023/08/19 08:58:32;;;;;;;5.15;4.65;;;31.90;1.00;;;;;;5164301;28;20063;-63
2023/08/19 09:01:07;;;;;;;7.47;5.25;;;32.00;1.00;;;;;;5191958;28;20029;-64
2023/08/19 09:03:44;;;;;;;7.22;5.32;;;31.70;1.00;;;;;;5164141;28;20049;-62
2023/08/19 09:06:22;;;;;;;7.50;5.40;;;31.60;1.00;;;;;;5160195;28;20031;-64
2023/08/19 09:09:17;;;;;;;6.35;4.72;;;31.70;1.00;;;;;;5196676;28;20033;-63
2023/08/19 09:11:52;;;;;;;6.60;5.35;;;31.80;1.00;;;;;;5121862;28;20174;-62
2023/08/19 09:14:42;;;;;;;7.15;5.55;;;32.30;1.00;;;;;;5148698;28;20039;-64
2023/08/19 09:17:14;;;;;;;7.28;6.05;;;32.20;1.00;;;;;;5151070;28;20042;-62
2023/08/19 09:19:47;;;;;;;6.95;5.43;;;32.30;1.00;;;;;;5213262;28;20051;-63
2023/08/19 09:22:26;;;;;;;6.75;6.03;;;32.70;1.00;;;;;;5186872;28;20047;-64
2023/08/19 09:25:12;;;;;;;5.78;5.18;;;32.20;1.00;;;;;;5212934;28;20203;-63
2023/08/19 09:27:46;;;;;;;6.18;4.78;;;32.20;1.00;;;;;;5190313;28;20075;-63
2023/08/19 09:30:20;;;;;;;6.38;5.78;;;32.60;1.00;;;;;;5169375;28;20055;-64
2023/08/19 09:32:59;;;;;;;7.03;5.40;;;32.90;1.00;;;;;;5139359;28;20035;-65
2023/08/19 09:35:45;;;;;;;5.15;4.65;;;32.60;1.00;;;;;;5187505;28;20047;-65
2023/08/19 09:38:26;;;;;;;8.13;5.60;;;33.30;1.00;;;;;;5189960;28;20047;-64
2023/08/19 09:41:03;;;;;;;7.70;5.70;;;33.70;1.00;;;;;;5202736;28;20035;-63
2023/08/19 09:43:41;;;;;;;5.95;5.35;;;33.80;1.00;;;;;;5191242;28;20221;-62
2023/08/19 09:46:16;;;;;;;5.60;5.00;;;34.20;1.00;;;;;;5198811;28;20058;-64
2023/08/19 09:48:58;;;;;;;6.32;5.57;;;34.40;8.10;;;;;;5187834;28;20037;-62
2023/08/19 09:51:34;;;;;;;5.88;4.90;;;34.20;13.70;;;;;;5130564;28;20404;-62
2023/08/19 09:54:19;;;;;;;5.22;4.72;;;34.60;1.00;;;;;;5201584;28;20046;-65
2023/08/19 09:56:57;;;;;;;;;;;34.90;99.90;;;;;;5205855;28;20041;-64
2023/08/19 10:00:00;;;;;;;6.13;4.55;;;34.80;99.90;;;;;;5163996;28;20179;-64
2023/08/19 10:02:36;;;;;;;6.68;5.30;;;34.70;99.90;;;;;;5171721;28;20067;-64
2023/08/19 10:05:45;;;;;;;7.28;4.97;;;35.00;99.90;;;;;;5132363;28;20055;-64
2023/08/19 10:08:29;;;;;;;6.15;5.55;;;35.20;99.90;;;;;;5126149;28;20038;-64
2023/08/19 10:11:04;;;;;;;5.78;4.72;;;33.80;99.90;;;;;;5134511;28;20034;-64
2023/08/19 10:13:39;;;;;;;6.53;4.85;;;33.90;99.90;;;;;;5209023;28;20033;-64
2023/08/19 10:16:15;;;;;;;4.57;4.10;;;34.70;99.90;;;;;;5198747;28;20050;-63
2023/08/19 10:18:51;;;;;;;5.88;5.00;;;35.90;99.90;;;;;;5167918;28;20031;-65
2023/08/19 10:21:30;;;;;;;6.47;5.35;;;36.50;99.90;;;;;;5097771;28;20615;-64
2023/08/19 10:24:06;;;;;;;5.15;4.10;;;36.90;99.90;;;;;;5201506;28;20029;-63
2023/08/19 10:26:48;;;;;;;6.28;4.97;;;37.30;99.90;;;;;;5183805;28;20034;-64
2023/08/19 10:29:21;;;;;;;4.57;4.10;;;37.70;99.90;;;;;;5197124;28;20078;-63
2023/08/19 10:31:53;;;;;;;5.70;4.60;;;37.00;99.90;;;;;;5221849;28;20032;-62
2023/08/19 10:34:28;;;;;;;5.30;4.18;;;37.20;99.90;;;;;;5124504;28;20025;-60
2023/08/19 10:37:13;;;;;;;4.30;3.90;;;37.60;99.90;;;;;;5206125;28;20055;-63
2023/08/19 10:39:49;;;;;;;4.82;4.35;;;38.60;99.90;;;;;;5185828;28;20045;-61
2023/08/19 10:42:35;;;;;;;4.43;4.03;;;38.50;1.00;;;;;;5167047;28;20049;-62
2023/08/19 10:45:19;;;;;;;9.82;4.65;;;38.90;1.00;;;;;;5196353;28;20027;-64
2023/08/19 10:47:53;;;;;;;5.13;4.63;;;39.90;1.00;;;;;;5178135;28;20468;-65
2023/08/19 10:50:30;;;;;;;5.03;4.63;;;40.60;1.00;;;;;;5136485;28;20085;-62
2023/08/19 10:53:07;;;;;;;5.63;4.95;;;40.40;1.00;;;;;;5204496;28;20045;-63
2023/08/19 10:55:56;;;;;;;5.13;4.63;;;39.60;1.00;;;;;;5139798;28;20033;-64
2023/08/19 10:58:30;;;;;;;5.35;4.85;;;39.30;1.00;;;;;;5186387;28;20033;-61
2023/08/19 11:01:05;;;;;;;5.47;4.95;;;39.50;1.00;;;;;;5124962;28;20438;-63
2023/08/19 11:03:44;;;;;;;4.47;4.07;;;39.40;1.00;;;;;;5196528;28;20051;-63
2023/08/19 11:06:18;;;;;;;7.35;5.28;;;40.20;1.00;;;;;;5205657;28;20043;-62
2023/08/19 11:08:52;;;;;;;4.47;4.07;;;40.80;1.00;;;;;;5206673;28;20035;-63
2023/08/19 11:11:24;;;;;;;5.03;4.63;;;40.40;1.00;;;;;;5188154;28;20024;-63
2023/08/19 11:13:57;;;;;;;4.68;4.28;;;41.40;1.00;;;;;;5196369;28;20460;-63
2023/08/19 11:16:30;;;;;;;5.35;4.95;;;41.90;1.00;;;;;;5137313;28;20033;-62
2023/08/19 11:19:03;;;;;;;5.07;4.47;;;41.00;1.00;;;;;;5121730;28;20038;-63
2023/08/19 11:21:45;;;;;;;4.38;3.97;;;42.40;99.90;;;;;;5105843;28;20042;-61
2023/08/19 11:24:40;;;;;;;4.90;4.40;;;43.10;1.00;;;;;;5175945;28;20052;-64
2023/08/19 11:27:20;;;;;;;5.15;4.55;;;43.70;99.90;;;;;;5135884;28;20035;-63
2023/08/19 11:29:58;;;;;;;4.63;4.28;;;42.10;99.90;;;;;;5191899;28;20040;-62
2023/08/19 11:32:30;;;;;;;4.85;4.45;;;41.70;99.90;;;;;;5182527;28;20045;-63
2023/08/19 11:35:07;;;;;;;4.97;4.13;;;42.50;99.90;;;;;;5125158;28;20027;-61
2023/08/19 11:37:50;;;;;;;4.75;4.32;;;43.70;99.90;;;;;;5120200;28;20231;-63
2023/08/19 11:40:35;;;;;;;5.07;4.57;;;44.00;1.00;;;;;;5138441;28;20035;-62
2023/08/19 11:43:09;;;;;;;4.32;3.92;;;44.30;99.90;;;;;;5181184;28;20050;-64
2023/08/19 11:45:43;;;;;;;5.10;4.60;;;44.80;1.00;;;;;;5208542;28;20048;-64
2023/08/19 11:48:17;;;;;;;5.57;3.75;;;44.60;1.00;;;;;;5117971;28;20382;-63
2023/08/19 11:50:50;;;;;;;4.90;4.50;;;44.70;1.00;;;;;;5117514;28;20043;-63
2023/08/19 11:53:30;;;;;;;5.43;4.93;;;44.90;1.00;;;;;;5176530;28;20029;-62
2023/08/19 11:56:02;;;;;;;5.28;4.78;;;44.90;1.00;;;;;;5179364;28;20056;-63
2023/08/19 11:58:48;;;;;;;5.35;4.72;;;45.20;1.00;;;;;;5180062;28;20044;-60
2023/08/19 12:01:27;;;;;;;5.32;4.82;;;45.20;1.00;;;;;;5192544;28;20047;-64
2023/08/19 12:04:08;;;;;;;4.75;4.35;;;45.30;1.00;;;;;;5221325;28;20072;-64
2023/08/19 12:06:43;;;;;;;7.07;4.53;;;44.00;99.90;;;;;;5198747;28;20043;-60
2023/08/19 12:09:25;;;;;;;4.85;4.45;;;44.40;99.90;;;;;;5130796;28;20355;-61
2023/08/19 12:12:11;;;;;;;7.30;5.03;;;44.80;99.90;;;;;;5120144;28;20034;-64
2023/08/19 12:14:53;;;;;;;5.00;4.60;;;45.70;99.90;;;;;;5138157;28;20085;-63
2023/08/19 12:17:28;;;;;;;5.53;5.03;;;45.10;99.90;;;;;;5114583;28;20558;-61
2023/08/19 12:19:59;;;;;;;4.82;4.43;;;45.30;1.00;;;;;;5202234;28;20041;-62
2023/08/19 12:22:39;;;;;;;8.52;4.50;;;45.90;1.00;;;;;;5137744;28;20039;-64
2023/08/19 12:25:13;;;;;;;4.57;4.18;;;46.10;1.00;;;;;;5140184;28;20039;-64
2023/08/19 12:27:51;;;;;;;6.47;5.15;;;45.80;1.00;;;;;;5200499;28;20051;-63
2023/08/19 12:30:28;;;;;;;6.97;5.22;;;44.80;1.00;;;;;;5135632;28;20019;-61
2023/08/19 12:33:00;;;;;;;5.60;5.10;;;45.10;1.00;;;;;;5191357;28;20384;-63
2023/08/19 12:35:34;;;;;;;5.25;4.82;;;45.00;1.00;;;;;;5183719;28;20049;-63
2023/08/19 12:38:08;;;;;;;5.70;5.20;;;45.30;1.00;;;;;;5171380;28;20039;-62
2023/08/19 12:40:42;;;;;;;5.05;4.63;;;45.70;1.00;;;;;;5194375;28;20365;-62
2023/08/19 12:43:15;;;;;;;4.90;4.50;;;45.90;1.00;;;;;;5170942;28;20353;-63
2023/08/19 12:45:47;;;;;;;5.55;4.65;;;47.00;1.00;;;;;;5102470;28;20348;-64
2023/08/19 12:48:24;;;;;;;6.15;4.68;;;48.30;1.00;;;;;;5168979;28;20117;-64
2023/08/19 12:50:59;;;;;;;4.93;4.53;;;48.30;1.00;;;;;;5193213;28;20043;-63
2023/08/19 12:53:33;;;;;;;5.70;5.18;;;47.80;1.00;;;;;;5084705;28;20389;-63
2023/08/19 12:56:09;;;;;;;6.07;5.55;;;47.40;1.00;;;;;;5106141;28;20521;-64
2023/08/19 12:58:40;;;;;;;7.57;4.88;;;46.20;1.00;;;;;;5128290;28;20035;-62
2023/08/19 13:01:15;;;;;;;5.80;5.30;;;46.00;1.00;;;;;;5202482;28;20335;-64
2023/08/19 13:03:52;;;;;;;5.75;5.25;;;44.40;1.00;;;;;;5136406;28;20055;-63
2023/08/19 13:06:27;;;;;;;6.55;5.60;;;41.60;1.00;;;;;;5138158;28;20053;-62
2023/08/19 13:09:01;;;;;;;6.20;4.78;;;41.10;99.90;;;;;;5121440;28;20045;-61
2023/08/19 13:11:33;;;;;;;6.97;5.07;;;41.90;1.00;;;;;;5124432;28;20031;-63
2023/08/19 13:14:04;;;;;;;5.13;4.63;;;41.90;1.00;;;;;;5114230;28;20047;-64
2023/08/19 13:16:36;;;;;;;6.50;5.30;;;41.70;1.00;;;;;;5185993;28;20430;-63
2023/08/19 13:19:15;;;;;;;5.43;4.93;;;41.00;1.00;;;;;;5155887;28;20047;-63
2023/08/19 13:21:49;;;;;;;5.20;4.70;;;41.90;1.00;;;;;;5131230;28;20036;-63
2023/08/19 13:24:23;;;;;;;5.32;4.80;;;43.80;1.00;;;;;;5101827;29;20039;-64
2023/08/19 13:26:58;;;;;;;5.65;5.07;;;44.90;1.00;;;;;;5181781;28;20034;-60
2023/08/19 13:29:30;;;;;;;5.90;5.40;;;44.90;1.00;;;;;;5192316;28;20037;-64
2023/08/19 13:32:07;;;;;;;8.85;5.88;;;45.70;1.00;;;;;;5137545;28;20046;-63
2023/08/19 13:34:39;;;;;;;5.65;5.07;;;47.10;1.00;;;;;;5169810;28;20036;-62
2023/08/19 13:37:13;;;;;;;6.43;5.47;;;47.40;1.00;;;;;;5221190;28;20047;-65